Time;durP1;ratioP1;P1;durP2;ratioP2;P2;SDS_P1;SDS_P2;PMS_P1;PMS_P2;Temp;Humidity;BMP_temperature;BMP_pressure;BME280_temperature;BME280_humidity;BME280_pressure;Samples;Min_cycle;Max_cycle;Signal;HPM_P1;HPM_P2
2022/03/06 00:02:49;;;;;;;13.07;4.77;;;;;;;2.43;44.47;100906.22;5387220;32;34261;-73
2022/03/06 00:05:51;;;;;;;10.40;4.70;;;;;;;2.99;43.71;100907.19;5378320;32;34595;-67
2022/03/06 00:08:53;;;;;;;14.43;5.23;;;;;;;2.79;43.96;100907.16;5369763;32;34850;-67
2022/03/06 00:11:56;;;;;;;12.83;5.70;;;;;;;2.60;44.30;100901.09;5377386;32;34938;-68
2022/03/06 00:14:58;;;;;;;11.33;5.30;;;;;;;3.22;43.17;100909.75;5386016;32;35560;-71
2022/03/06 00:18:00;;;;;;;10.60;4.43;;;;;;;2.74;44.20;100916.69;5382753;32;34523;-71
2022/03/06 00:21:04;;;;;;;9.70;4.23;;;;;;;2.78;44.05;100910.63;5389532;32;35045;-71
2022/03/06 00:24:06;;;;;;;;;;;;;;;2.99;43.67;100909.78;5379819;32;35033;-73
2022/03/06 00:27:08;;;;;;;12.07;4.83;;;;;;;3.27;43.05;100908.03;5384244;32;35216;-71
2022/03/06 00:30:11;;;;;;;11.23;4.60;;;;;;;3.58;42.22;100907.97;5401965;32;45302;-71
2022/03/06 00:33:13;;;;;;;10.43;4.80;;;;;;;3.00;43.46;100901.13;5384427;32;36027;-68
2022/03/06 00:36:15;;;;;;;13.97;6.07;;;;;;;3.31;43.14;100903.69;5396860;32;34627;-72
2022/03/06 00:39:18;;;;;;;10.57;4.90;;;;;;;3.12;43.42;100911.50;5376690;32;34869;-72
2022/03/06 00:42:20;;;;;;;12.40;5.27;;;;;;;3.35;42.80;100902.81;5371331;32;34881;-70
2022/03/06 00:45:23;;;;;;;12.63;5.80;;;;;;;3.67;42.19;100900.16;5388667;32;34979;-67
2022/03/06 00:48:26;;;;;;;11.95;5.47;;;;;;;4.10;41.45;100903.47;5383000;32;34660;-68
2022/03/06 00:51:28;;;;;;;13.47;6.17;;;;;;;4.02;41.26;100906.09;5390361;32;34805;-67
2022/03/06 00:54:30;;;;;;;10.37;5.33;;;;;;;3.86;41.53;100903.56;5381630;32;35304;-72
2022/03/06 00:57:32;;;;;;;11.60;5.30;;;;;;;4.20;41.21;100907.78;5393041;32;34105;-71
2022/03/06 01:00:40;;;;;;;11.97;5.20;;;;;;;3.48;42.69;100904.56;5357161;32;34135;-71
2022/03/06 01:03:43;;;;;;;11.97;5.67;;;;;;;3.98;41.74;100899.16;5371598;32;46172;-71
2022/03/06 01:06:46;;;;;;;12.13;5.70;;;;;;;4.54;40.33;100902.38;5385640;32;34647;-71
2022/03/06 01:09:49;;;;;;;12.23;5.55;;;;;;;3.85;41.80;100899.22;5363316;32;35465;-68
2022/03/06 01:12:51;;;;;;;13.30;5.40;;;;;;;4.38;40.25;100899.00;5382164;32;34617;-70
2022/03/06 01:15:53;;;;;;;15.20;5.23;;;;;;;4.26;40.80;100899.94;5386399;32;34375;-67
2022/03/06 01:18:55;;;;;;;11.13;5.37;;;;;;;4.16;41.30;100894.78;5391059;32;34629;-71
2022/03/06 01:21:58;;;;;;;12.10;5.50;;;;;;;4.18;41.14;100893.88;5374781;32;34911;-72
2022/03/06 01:25:00;;;;;;;10.80;5.43;;;;;;;4.15;41.29;100886.09;5355890;32;35050;-71
2022/03/06 01:28:03;;;;;;;15.73;6.00;;;;;;;3.78;42.20;100886.25;5367867;32;35232;-68
2022/03/06 01:31:05;;;;;;;13.23;5.90;;;;;;;2.91;44.34;100888.16;5369842;32;34947;-72
2022/03/06 01:34:07;;;;;;;14.47;5.97;;;;;;;2.93;44.34;100882.06;5406183;32;34609;-71
2022/03/06 01:37:10;;;;;;;14.43;6.20;;;;;;;3.26;44.06;100878.59;5374255;32;36022;-67
2022/03/06 01:40:13;;;;;;;13.23;6.20;;;;;;;2.87;44.46;100870.81;5351742;32;35046;-67
2022/03/06 01:43:15;;;;;;;12.10;5.57;;;;;;;2.85;44.76;100881.22;5355274;32;35405;-73
2022/03/06 01:46:17;;;;;;;14.47;6.37;;;;;;;2.46;45.88;100873.38;5377483;32;35125;-71
2022/03/06 01:49:20;;;;;;;13.80;6.43;;;;;;;3.15;44.42;100871.66;5400353;32;34773;-72
2022/03/06 01:52:22;;;;;;;12.77;5.63;;;;;;;2.39;45.90;100869.91;5380900;32;35048;-72
2022/03/06 01:55:25;;;;;;;12.10;5.53;;;;;;;3.09;44.36;100858.69;5392413;32;34945;-71
2022/03/06 01:58:27;;;;;;;12.50;5.82;;;;;;;3.47;43.24;100858.62;5369806;32;34259;-71
2022/03/06 02:01:34;;;;;;;12.33;4.87;;;;;;;2.68;45.04;100855.22;5389640;32;34143;-68
2022/03/06 02:04:37;;;;;;;14.13;6.37;;;;;;;3.44;43.46;100849.09;5373525;32;33267;-72
2022/03/06 02:07:40;;;;;;;12.07;5.93;;;;;;;2.98;44.97;100850.91;5341080;32;34655;-69
2022/03/06 02:10:42;;;;;;;13.33;5.63;;;;;;;2.78;45.27;100850.06;5377873;32;43306;-68
2022/03/06 02:13:45;;;;;;;12.67;5.80;;;;;;;3.11;44.23;100839.66;5363739;32;34938;-67
2022/03/06 02:16:47;;;;;;;13.63;5.90;;;;;;;2.66;44.96;100836.22;5371039;32;34775;-68
2022/03/06 02:19:59;;;;;;;13.37;6.00;;;;;;;2.49;45.61;100832.72;5365306;32;34469;-68
2022/03/06 02:23:01;;;;;;;14.63;6.17;;;;;;;2.28;46.22;100843.94;5385951;32;35118;-71
2022/03/06 02:26:05;;;;;;;12.47;6.03;;;;;;;2.81;44.88;100850.06;5374374;32;35169;-71
2022/03/06 02:29:07;;;;;;;15.38;5.97;;;;;;;2.39;45.90;100850.03;5378732;32;36783;-67
2022/03/06 02:32:11;;;;;;;11.93;5.80;;;;;;;2.69;45.00;100846.56;5399091;32;32658;-66
2022/03/06 02:35:14;;;;;;;12.67;6.03;;;;;;;1.54;47.39;100832.44;5384352;32;34852;-68
2022/03/06 02:38:17;;;;;;;13.50;6.53;;;;;;;2.28;45.87;100843.94;5394988;32;35698;-67
2022/03/06 02:41:19;;;;;;;13.17;5.67;;;;;;;2.92;44.38;100841.41;5361946;32;33544;-67
2022/03/06 02:44:21;;;;;;;14.30;5.80;;;;;;;2.37;46.19;100843.09;5378799;32;35607;-72
2022/03/06 02:47:24;;;;;;;13.50;6.00;;;;;;;2.46;45.38;100843.13;5407179;32;34693;-73
2022/03/06 02:50:29;;;;;;;13.40;6.10;;;;;;;2.25;46.21;100854.31;5381985;32;35295;-67
2022/03/06 02:53:31;;;;;;;14.57;6.00;;;;;;;2.29;46.25;100852.59;5384355;32;34094;-67
2022/03/06 02:56:34;;;;;;;11.73;5.30;;;;;;;2.95;44.74;100850.91;5378325;32;34191;-72
2022/03/06 02:59:36;;;;;;;12.60;5.60;;;;;;;3.35;43.71;100843.94;5393888;32;34717;-71
2022/03/06 03:02:39;;;;;;;13.27;6.33;;;;;;;2.58;45.29;100848.31;5384188;32;34507;-71
2022/03/06 03:05:41;;;;;;;15.97;6.10;;;;;;;2.84;44.86;100847.47;5369648;32;44391;-71
2022/03/06 03:08:46;;;;;;;13.63;6.40;;;;;;;2.27;45.68;100843.94;5384078;32;34935;-71
2022/03/06 03:11:50;;;;;;;16.67;6.57;;;;;;;1.98;46.53;100844.72;5374314;32;34230;-68
2022/03/06 03:14:52;;;;;;;14.53;6.30;;;;;;;2.22;46.46;100843.06;5383901;32;34763;-68
2022/03/06 03:17:55;;;;;;;13.17;6.13;;;;;;;2.52;45.41;100830.16;5385114;32;34212;-67
2022/03/06 03:20:58;;;;;;;15.07;5.83;;;;;;;2.23;46.32;100835.28;5405951;32;35060;-71
2022/03/06 03:24:00;;;;;;;15.63;6.90;;;;;;;3.03;44.43;100836.22;5385367;32;35252;-70
2022/03/06 03:27:02;;;;;;;12.50;5.43;;;;;;;2.48;45.25;100841.38;5384446;32;35503;-68
2022/03/06 03:30:08;;;;;;;14.80;6.97;;;;;;;1.92;47.00;100844.69;5377260;32;34387;-68
2022/03/06 03:33:10;;;;;;;16.17;6.47;;;;;;;2.03;46.87;100844.75;5385262;32;43026;-71
2022/03/06 03:36:12;;;;;;;13.37;6.00;;;;;;;1.90;47.25;100851.63;5397582;32;34447;-68
2022/03/06 03:39:14;;;;;;;12.47;6.13;;;;;;;2.54;45.75;100853.50;5378875;32;35274;-67
2022/03/06 03:42:16;;;;;;;11.90;6.00;;;;;;;2.17;46.33;100859.47;5375078;32;35311;-67
2022/03/06 03:45:19;;;;;;;14.43;6.50;;;;;;;1.91;47.40;100855.94;5385438;32;35028;-66
2022/03/06 03:48:21;;;;;;;13.77;6.37;;;;;;;2.44;45.72;100855.19;5383159;32;36218;-73
2022/03/06 03:51:23;;;;;;;13.43;6.13;;;;;;;2.02;46.93;100850.81;5366812;32;35626;-71
2022/03/06 03:54:25;;;;;;;13.33;6.17;;;;;;;1.96;47.54;100862.00;5391469;32;34444;-67
2022/03/06 03:57:27;;;;;;;16.97;6.77;;;;;;;1.78;48.39;100867.13;5379198;32;34212;-68
2022/03/06 04:00:30;;;;;;;14.97;6.23;;;;;;;1.65;49.10;100865.34;5373304;32;34791;-67
2022/03/06 04:03:32;;;;;;;15.73;7.00;;;;;;;1.48;49.77;100867.81;5385876;32;34393;-71
2022/03/06 04:06:34;;;;;;;14.47;7.03;;;;;;;2.08;48.49;100869.84;5367792;32;34871;-71
2022/03/06 04:09:37;;;;;;;14.93;7.00;;;;;;;1.55;49.66;100875.66;5365402;32;35731;-71
2022/03/06 04:12:39;;;;;;;16.47;7.00;;;;;;;2.07;48.65;100878.47;5382516;32;34164;-70
2022/03/06 04:15:41;;;;;;;15.30;6.57;;;;;;;2.03;48.71;100883.63;5380847;32;43815;-67
2022/03/06 04:18:44;;;;;;;17.47;6.63;;;;;;;1.40;50.38;100875.56;5382704;32;34212;-68
2022/03/06 04:21:46;;;;;;;16.37;6.53;;;;;;;1.13;51.01;100880.56;5379894;32;34151;-73
2022/03/06 04:24:48;;;;;;;13.73;6.90;;;;;;;1.56;50.01;100877.37;5400629;32;34613;-70
2022/03/06 04:27:50;;;;;;;16.07;6.87;;;;;;;1.19;51.19;100880.59;5351766;32;35106;-67
2022/03/06 04:30:52;;;;;;;13.73;6.13;;;;;;;1.96;49.43;100877.56;5381363;32;34682;-68
2022/03/06 04:33:55;;;;;;;12.77;6.30;;;;;;;2.06;49.09;100878.44;5393697;32;34587;-70
2022/03/06 04:36:57;;;;;;;15.60;6.20;;;;;;;2.00;48.71;100870.69;5385712;32;34492;-70
2022/03/06 04:39:59;;;;;;;14.73;6.43;;;;;;;1.63;50.04;100873.09;5363999;32;34605;-68
2022/03/06 04:43:02;;;;;;;16.40;6.67;;;;;;;1.72;49.50;100873.12;5376813;32;34464;-67
2022/03/06 04:46:04;;;;;;;13.23;5.77;;;;;;;1.74;49.72;100875.72;5373797;32;35526;-70
2022/03/06 04:49:07;;;;;;;13.13;6.10;;;;;;;1.19;50.25;100889.22;5378463;32;35442;-68
2022/03/06 04:52:09;;;;;;;12.23;6.20;;;;;;;1.31;50.24;100891.91;5361992;32;34647;-72
2022/03/06 04:55:11;;;;;;;12.10;5.40;;;;;;;1.14;50.64;100892.66;5390553;32;44719;-71
2022/03/06 04:58:13;;;;;;;14.63;6.50;;;;;;;1.39;50.24;100888.50;5344905;32;34266;-72
2022/03/06 05:01:15;;;;;;;15.10;6.30;;;;;;;1.43;49.94;100890.28;5383054;32;34532;-68
2022/03/06 05:04:23;;;;;;;13.33;6.13;;;;;;;1.99;48.59;100884.47;5374141;32;35162;-71
2022/03/06 05:07:26;;;;;;;12.20;6.00;;;;;;;1.45;49.76;100878.19;5347479;32;35509;-67
2022/03/06 05:10:28;;;;;;;14.33;6.73;;;;;;;1.58;49.53;100886.03;5396279;32;33137;-71
2022/03/06 05:13:30;;;;;;;13.37;5.83;;;;;;;1.72;48.71;100893.88;5373528;32;36070;-71
2022/03/06 05:16:32;;;;;;;13.60;5.67;;;;;;;1.50;49.29;100897.22;5397479;32;34541;-67
2022/03/06 05:19:34;;;;;;;12.30;6.50;;;;;;;1.17;49.87;100892.69;5383913;32;35202;-68
2022/03/06 05:22:38;;;;;;;12.90;5.83;;;;;;;0.97;49.87;100901.16;5393922;32;35253;-68
2022/03/06 05:25:40;;;;;;;12.00;5.72;;;;;;;1.44;49.69;100902.34;5380555;32;36811;-68
2022/03/06 05:28:42;;;;;;;11.97;6.03;;;;;;;1.23;49.30;100888.41;5363862;32;35800;-67
2022/03/06 05:31:45;;;;;;;12.83;5.73;;;;;;;1.88;47.60;100892.22;5361721;32;34402;-67
2022/03/06 05:34:47;;;;;;;12.17;5.63;;;;;;;1.20;49.06;100897.87;5378778;32;34682;-68
2022/03/06 05:37:49;;;;;;;14.47;5.70;;;;;;;1.02;49.05;100893.41;5406449;32;35435;-67
2022/03/06 05:40:51;;;;;;;12.87;5.50;;;;;;;1.26;48.48;100892.72;5361339;32;34601;-67
2022/03/06 05:43:54;;;;;;;12.43;5.77;;;;;;;1.49;48.19;100898.94;5373696;32;34990;-70
2022/03/06 05:46:56;;;;;;;14.00;6.20;;;;;;;1.26;48.40;100903.97;5364221;32;34656;-67
2022/03/06 05:49:58;;;;;;;13.47;5.90;;;;;;;1.08;48.70;100899.50;5370744;32;34798;-69
2022/03/06 05:53:00;;;;;;;14.77;5.77;;;;;;;1.33;48.30;100890.19;5403858;32;34498;-70
2022/03/06 05:56:03;;;;;;;15.03;6.20;;;;;;;1.43;48.32;100898.03;5381914;32;34496;-72
2022/03/06 05:59:05;;;;;;;12.60;5.50;;;;;;;1.58;47.53;100898.97;5394150;32;34939;-67
2022/03/06 06:02:07;;;;;;;13.57;6.43;;;;;;;1.76;47.26;100911.19;5381957;32;32868;-72
2022/03/06 06:05:10;;;;;;;11.97;5.17;;;;;;;2.43;45.47;100895.84;5382151;32;38447;-67
2022/03/06 06:08:12;;;;;;;15.43;7.27;;;;;;;3.45;43.07;100894.13;5377504;32;35387;-70
2022/03/06 06:11:14;;;;;;;13.17;5.57;;;;;;;3.99;41.45;100889.62;5370807;32;35143;-68
2022/03/06 06:14:17;;;;;;;13.03;5.67;;;;;;;3.04;43.52;100902.84;5396049;32;36325;-67
2022/03/06 06:17:22;;;;;;;13.87;5.97;;;;;;;4.56;40.66;100893.66;5374716;32;36091;-72
2022/03/06 06:20:24;;;;;;;14.27;6.67;;;;;;;4.51;40.27;100877.25;5395470;32;35150;-68
2022/03/06 06:23:27;;;;;;;12.13;5.57;;;;;;;3.68;41.38;100889.75;5373005;32;34646;-71
2022/03/06 06:26:31;;;;;;;12.63;6.13;;;;;;;3.80;41.32;100874.13;5370587;32;34864;-69
2022/03/06 06:29:33;;;;;;;12.73;6.07;;;;;;;4.41;40.28;100877.28;5376946;32;34638;-71
2022/03/06 06:32:36;;;;;;;13.17;6.10;;;;;;;4.42;39.88;100882.47;5385843;32;35180;-67
2022/03/06 06:35:38;;;;;;;11.97;5.87;;;;;;;4.49;39.58;100872.91;5382081;32;34084;-71
2022/03/06 06:38:40;;;;;;;13.57;6.37;;;;;;;4.19;39.69;100882.62;5370852;32;44488;-68
2022/03/06 06:41:43;;;;;;;14.80;6.30;;;;;;;4.61;39.08;100878.03;5367821;32;34902;-72
2022/03/06 06:44:45;;;;;;;14.87;6.13;;;;;;;5.81;37.14;100863.00;5378912;32;34866;-71
2022/03/06 06:47:48;;;;;;;15.47;6.07;;;;;;;4.76;38.62;100875.28;5402770;32;34618;-69
2022/03/06 06:50:50;;;;;;;12.77;6.33;;;;;;;6.18;36.81;100870.38;5388359;32;34869;-68
2022/03/06 06:53:52;;;;;;;13.73;6.23;;;;;;;5.76;36.19;100867.41;5382719;32;34431;-73
2022/03/06 06:56:54;;;;;;;11.87;6.33;;;;;;;7.15;34.30;100864.53;5386837;32;35406;-66
2022/03/06 06:59:57;;;;;;;13.93;6.73;;;;;;;6.82;34.15;100879.88;5380138;32;35249;-73
2022/03/06 07:02:59;;;;;;;14.23;6.43;;;;;;;7.18;33.81;100877.56;5393279;32;34993;-70
2022/03/06 07:06:01;;;;;;;14.07;6.20;;;;;;;6.41;35.11;100878.75;5367676;32;35476;-71
2022/03/06 07:09:04;;;;;;;14.07;6.30;;;;;;;5.24;36.79;100877.53;5386557;32;35165;-71
2022/03/06 07:12:07;;;;;;;14.77;6.10;;;;;;;5.92;36.04;100884.63;5381146;32;34637;-68
2022/03/06 07:15:11;;;;;;;16.60;6.80;;;;;;;5.79;36.19;100883.00;5381982;32;36042;-68
2022/03/06 07:18:13;;;;;;;14.53;7.13;;;;;;;5.80;36.44;100887.38;5381369;32;45767;-71
2022/03/06 07:21:15;;;;;;;12.70;6.30;;;;;;;6.24;35.38;100886.81;5384756;32;35936;-68
2022/03/06 07:24:17;;;;;;;13.17;6.63;;;;;;;6.57;35.41;100889.88;5396000;32;35634;-71
2022/03/06 07:27:19;;;;;;;12.40;6.50;;;;;;;6.90;34.36;100888.47;5360535;32;34901;-72
2022/03/06 07:30:22;;;;;;;13.40;6.70;;;;;;;5.44;37.04;100888.59;5387317;32;34720;-69
2022/03/06 07:33:24;;;;;;;13.10;6.33;;;;;;;6.94;35.04;100884.06;5391016;32;34634;-72
2022/03/06 07:36:26;;;;;;;13.37;6.43;;;;;;;9.19;30.30;100868.00;5379238;32;35246;-72
2022/03/06 07:39:29;;;;;;;13.53;7.03;;;;;;;8.23;31.70;100885.09;5383761;32;34179;-71
2022/03/06 07:42:31;;;;;;;14.00;6.47;;;;;;;8.67;31.41;100878.91;5383739;32;34076;-67
2022/03/06 07:45:33;;;;;;;12.47;6.80;;;;;;;10.35;28.04;100866.53;5368655;32;34346;-72
2022/03/06 07:48:35;;;;;;;12.90;6.43;;;;;;;7.63;32.60;100882.84;5384132;32;34798;-69
2022/03/06 07:51:37;;;;;;;13.40;7.03;;;;;;;7.41;33.22;100879.78;5400336;32;34118;-71
2022/03/06 07:54:40;;;;;;;13.13;6.47;;;;;;;8.30;31.88;100879.69;5388616;32;37672;-68
2022/03/06 07:57:42;;;;;;;11.67;5.93;;;;;;;8.54;31.22;100870.47;5383221;32;34796;-72
2022/03/06 08:00:44;;;;;;;12.43;6.30;;;;;;;6.72;34.18;100884.41;5395379;32;34316;-72
2022/03/06 08:03:46;;;;;;;12.20;6.37;;;;;;;8.08;32.45;100867.97;5372029;32;35357;-69
2022/03/06 08:06:49;;;;;;;13.43;6.90;;;;;;;7.35;33.67;100870.28;5346351;32;34602;-71
2022/03/06 08:09:51;;;;;;;14.10;6.63;;;;;;;5.81;36.63;100873.44;5373335;32;35801;-72
2022/03/06 08:12:53;;;;;;;14.23;6.87;;;;;;;5.79;36.94;100884.75;5375146;32;34869;-69
2022/03/06 08:15:56;;;;;;;14.17;6.63;;;;;;;6.64;35.19;100865.38;5399795;32;34853;-70
2022/03/06 08:18:58;;;;;;;15.60;6.20;;;;;;;5.94;36.04;100872.44;5375308;32;34838;-75
2022/03/06 08:22:00;;;;;;;12.57;6.40;;;;;;;5.58;36.86;100867.59;5376819;32;35007;-73
2022/03/06 08:25:03;;;;;;;13.37;6.57;;;;;;;4.79;38.68;100864.88;5370464;32;36440;-68
2022/03/06 08:28:05;;;;;;;15.10;5.80;;;;;;;5.82;36.50;100850.81;5392427;32;34117;-72
2022/03/06 08:31:08;;;;;;;11.50;5.13;;;;;;;5.50;37.08;100865.09;5384849;32;35422;-71
2022/03/06 08:34:11;;;;;;;12.45;5.75;;;;;;;6.18;35.89;100854.72;5384746;32;43567;-70
2022/03/06 08:37:13;;;;;;;13.00;6.03;;;;;;;5.00;38.19;100862.97;5406156;32;35004;-72
2022/03/06 08:40:16;;;;;;;11.00;5.50;;;;;;;5.23;38.30;100855.81;5367879;32;36891;-71
2022/03/06 08:43:18;;;;;;;12.03;5.73;;;;;;;4.94;38.16;100843.03;5387799;32;35336;-72
2022/03/06 08:46:20;;;;;;;12.27;5.90;;;;;;;5.32;37.75;100845.28;5395724;32;34320;-69
2022/03/06 08:49:22;;;;;;;12.43;5.83;;;;;;;4.85;38.55;100843.13;5394208;32;35213;-71
2022/03/06 08:52:25;;;;;;;11.37;5.60;;;;;;;5.16;37.94;100836.75;5387366;32;34561;-72
2022/03/06 08:55:27;;;;;;;11.37;5.07;;;;;;;5.01;37.74;100849.91;5382726;32;34772;-71
2022/03/06 08:58:29;;;;;;;10.83;5.00;;;;;;;5.57;35.85;100845.88;5371036;32;34202;-72
2022/03/06 09:01:31;;;;;;;11.60;5.17;;;;;;;5.50;35.54;100846.84;5343518;32;32659;-71
2022/03/06 09:04:34;;;;;;;11.57;5.73;;;;;;;4.90;36.58;100854.37;5375840;32;35800;-73
2022/03/06 09:07:36;;;;;;;12.30;5.60;;;;;;;5.03;36.84;100852.53;5350069;32;34523;-68
2022/03/06 09:10:40;;;;;;;14.70;5.70;;;;;;;5.28;36.59;100843.59;5376843;32;34053;-68
2022/03/06 09:13:42;;;;;;;16.25;6.10;;;;;;;5.83;35.94;100839.50;5366134;32;45573;-68
2022/03/06 09:16:44;;;;;;;11.83;5.60;;;;;;;5.35;36.71;100836.59;5365736;32;34763;-71
2022/03/06 09:19:46;;;;;;;10.60;5.07;;;;;;;5.41;36.96;100828.69;5405107;32;34762;-71
2022/03/06 09:22:49;;;;;;;12.77;6.00;;;;;;;5.52;37.24;100836.38;5383919;32;35211;-73
2022/03/06 09:25:51;;;;;;;12.33;5.37;;;;;;;5.27;37.94;100841.84;5376225;32;35654;-71
2022/03/06 09:28:53;;;;;;;11.80;6.20;;;;;;;5.21;37.46;100841.91;5351239;32;34595;-71
2022/03/06 09:31:55;;;;;;;10.73;5.37;;;;;;;5.97;36.25;100830.63;5394651;32;34442;-68
2022/03/06 09:34:58;;;;;;;13.60;5.90;;;;;;;7.35;33.43;100824.97;5400986;32;33525;-72
2022/03/06 09:38:01;;;;;;;13.30;6.27;;;;;;;5.95;35.98;100831.56;5371104;32;34723;-69
2022/03/06 09:41:04;;;;;;;14.70;7.45;;;;;;;5.75;36.36;100825.69;5374390;32;34251;-67
2022/03/06 09:44:08;;;;;;;10.47;5.10;;;;;;;5.63;36.53;100829.31;5384333;32;34645;-67
2022/03/06 09:47:12;;;;;;;11.20;5.97;;;;;;;5.12;36.97;100819.41;5391056;32;46254;-71
2022/03/06 09:50:15;;;;;;;18.05;5.82;;;;;;;6.51;34.71;100809.87;5382067;32;34446;-71
2022/03/06 09:53:17;;;;;;;11.18;5.03;;;;;;;7.32;33.09;100803.19;5391747;32;34697;-69
2022/03/06 09:56:19;;;;;;;11.67;5.53;;;;;;;7.41;32.59;100807.41;5370254;32;34672;-72
2022/03/06 09:59:22;;;;;;;11.20;5.23;;;;;;;7.04;32.97;100810.72;5383439;32;35538;-72
2022/03/06 10:02:24;;;;;;;11.53;5.87;;;;;;;7.49;32.71;100810.72;5398792;32;35095;-68
2022/03/06 10:05:37;;;;;;;12.70;5.73;;;;;;;7.10;32.95;100809.75;5370598;32;34992;-71
2022/03/06 10:08:40;;;;;;;9.95;5.03;;;;;;;7.95;31.18;100806.31;5384679;32;37987;-70
2022/03/06 10:11:42;;;;;;;10.07;5.40;;;;;;;10.90;27.22;100782.41;5354335;32;34970;-72
2022/03/06 10:14:45;;;;;;;12.87;5.53;;;;;;;9.29;28.79;100795.19;5395567;32;35347;-72
2022/03/06 10:18:00;;;;;;;11.07;6.07;;;;;;;12.54;24.85;100779.78;5382899;32;35084;-68
2022/03/06 10:21:10;;;;;;;13.10;6.50;;;;;;;12.56;24.02;100786.72;5395537;32;37145;-67
2022/03/06 10:24:14;;;;;;;14.50;8.30;;;;;;;14.03;22.67;100778.47;5373304;32;45210;-73
2022/03/06 10:27:49;;;;;;;13.07;6.80;;;;;;;16.20;20.44;100772.56;5374018;32;35196;-71
2022/03/06 10:30:52;;;;;;;10.53;6.03;;;;;;;14.86;20.05;100780.59;5385072;32;34862;-72
2022/03/06 10:34:12;;;;;;;11.53;6.23;;;;;;;12.37;24.17;100780.47;5380987;32;35337;-68
2022/03/06 10:37:15;;;;;;;11.93;5.93;;;;;;;13.04;23.32;100775.03;5381366;32;45145;-69
2022/03/06 10:40:31;;;;;;;12.25;6.72;;;;;;;15.99;19.73;100760.53;5378564;32;35103;-70
2022/03/06 10:43:34;;;;;;;11.53;6.23;;;;;;;13.01;22.75;100759.34;5370944;32;34991;-69
2022/03/06 10:46:37;;;;;;;13.00;6.47;;;;;;;14.68;21.36;100751.56;5380293;32;34746;-72
2022/03/06 10:49:40;;;;;;;11.10;5.97;;;;;;;13.44;22.62;100752.16;5394037;32;35036;-70
2022/03/06 10:52:42;;;;;;;12.43;6.55;;;;;;;11.96;24.69;100756.59;5382871;32;34829;-68
2022/03/06 10:55:45;;;;;;;11.50;6.55;;;;;;;10.85;25.78;100753.62;5364634;32;34829;-68
2022/03/06 10:58:48;;;;;;;14.50;6.75;;;;;;;11.62;24.63;100755.22;5354475;32;34681;-73
2022/03/06 11:02:06;;;;;;;11.60;6.60;;;;;;;15.06;20.84;100734.59;5370243;32;35300;-74
2022/03/06 11:05:08;;;;;;;12.70;6.87;;;;;;;15.81;20.06;100721.78;5362484;32;35570;-70
2022/03/06 11:08:12;;;;;;;10.82;6.50;;;;;;;14.93;20.85;100719.41;5338613;32;47104;-71
2022/03/06 11:11:15;;;;;;;12.77;6.10;;;;;;;17.34;18.17;100703.06;5400424;32;34197;-69
2022/03/06 11:14:17;;;;;;;15.67;7.00;;;;;;;14.35;21.02;100704.69;5380761;32;34180;-68
2022/03/06 11:17:19;;;;;;;13.10;6.23;;;;;;;12.42;23.79;100713.44;5371344;32;34176;-68
2022/03/06 11:20:22;;;;;;;11.27;6.30;;;;;;;11.07;25.22;100706.38;5385160;32;34675;-74
2022/03/06 11:23:46;;;;;;;12.00;6.47;;;;;;;13.09;22.65;100703.59;5369126;32;35623;-69
2022/03/06 11:26:48;;;;;;;12.20;5.90;;;;;;;14.38;21.71;100693.12;5380977;32;45031;-69
2022/03/06 11:30:18;;;;;;;12.43;6.27;;;;;;;13.55;22.14;100676.81;5384130;32;35239;-69
2022/03/06 11:33:20;;;;;;;12.00;6.40;;;;;;;12.10;24.33;100685.78;5395628;32;35573;-74
2022/03/06 11:36:25;;;;;;;14.67;6.60;;;;;;;10.36;26.01;100686.09;5378813;32;34783;-70
2022/03/06 11:39:30;;;;;;;13.43;6.20;;;;;;;12.99;23.25;100685.50;5368629;32;35042;-73
2022/03/06 11:42:48;;;;;;;12.23;6.17;;;;;;;13.22;22.63;100686.31;5368369;32;36827;-69
2022/03/06 11:46:01;;;;;;;14.30;6.30;;;;;;;12.64;23.21;100675.66;5383076;32;33844;-70
2022/03/06 11:49:06;;;;;;;13.73;6.20;;;;;;;10.15;26.63;100683.22;5382788;32;34846;-72
2022/03/06 11:52:27;;;;;;;14.00;6.53;;;;;;;9.73;27.99;100675.81;5375394;32;34662;-76
2022/03/06 11:55:31;;;;;;;14.23;5.80;;;;;;;12.02;25.03;100665.94;5372011;32;34083;-72
2022/03/06 11:58:54;;;;;;;13.40;5.93;;;;;;;13.08;23.00;100649.09;5382388;32;35545;-74
2022/03/06 12:02:01;;;;;;;14.23;6.77;;;;;;;12.88;22.87;100660.50;5360571;32;34198;-74
2022/03/06 12:05:04;;;;;;;12.50;6.23;;;;;;;12.31;23.94;100657.69;5395587;32;34779;-74
2022/03/06 12:08:10;;;;;;;12.47;6.30;;;;;;;12.12;24.36;100656.75;5368976;32;34739;-69
2022/03/06 12:11:12;;;;;;;13.03;6.67;;;;;;;13.11;22.60;100643.66;5361967;32;45158;-69
2022/03/06 12:14:20;;;;;;;13.70;7.70;;;;;;;12.45;23.59;100638.66;5379293;32;34978;-72
2022/03/06 12:17:34;;;;;;;12.07;6.87;;;;;;;12.86;23.17;100636.84;5380527;32;34577;-73
2022/03/06 12:20:43;;;;;;;13.93;7.20;;;;;;;13.96;21.98;100628.22;5395960;32;33585;-72
2022/03/06 12:23:45;;;;;;;12.30;6.43;;;;;;;12.98;22.84;100633.66;5354760;32;44487;-68
2022/03/06 12:26:48;;;;;;;16.93;7.20;;;;;;;11.59;24.58;100641.28;5386422;32;35293;-69
2022/03/06 12:29:51;;;;;;;15.40;6.87;;;;;;;11.73;24.92;100627.59;5382589;32;35301;-73
2022/03/06 12:32:54;;;;;;;13.63;6.27;;;;;;;14.32;21.30;100620.25;5385059;32;33926;-68
2022/03/06 12:36:14;;;;;;;11.37;6.23;;;;;;;13.44;21.50;100623.66;5394570;32;34663;-69
2022/03/06 12:39:18;;;;;;;11.53;6.30;;;;;;;13.26;22.64;100616.59;5377382;32;47095;-71
2022/03/06 12:42:30;;;;;;;17.90;7.10;;;;;;;12.85;22.75;100614.03;5376085;32;34738;-68
2022/03/06 12:45:35;;;;;;;13.77;7.40;;;;;;;12.89;22.83;100612.12;5369742;32;33471;-68
2022/03/06 12:48:38;;;;;;;11.70;6.50;;;;;;;13.74;21.54;100604.62;5378085;32;36383;-73
2022/03/06 12:51:40;;;;;;;13.90;7.17;;;;;;;13.14;22.46;100603.97;5394768;32;45205;-71
2022/03/06 12:54:45;;;;;;;12.67;7.93;;;;;;;14.99;20.49;100600.00;5385240;32;35975;-68
2022/03/06 12:57:49;;;;;;;12.43;7.07;;;;;;;14.97;20.17;100596.59;5378901;32;35617;-74
2022/03/06 13:00:51;;;;;;;13.43;7.53;;;;;;;16.81;18.23;100585.09;5364249;32;34464;-70
2022/03/06 13:03:57;;;;;;;13.93;7.85;;;;;;;20.13;15.31;100570.22;5393742;32;34352;-69
2022/03/06 13:06:59;;;;;;;13.33;7.90;;;;;;;19.33;15.76;100568.13;5367590;32;35164;-71
2022/03/06 13:10:05;;;;;;;13.82;7.65;;;;;;;18.57;16.46;100577.06;5375481;32;35503;-72
2022/03/06 13:13:07;;;;;;;13.73;7.10;;;;;;;15.87;18.95;100589.78;5383298;32;35093;-72
2022/03/06 13:16:09;;;;;;;13.77;7.87;;;;;;;15.81;18.99;100579.53;5377723;32;38457;-72
2022/03/06 13:19:12;;;;;;;14.90;8.77;;;;;;;15.26;19.15;100587.91;5359444;32;35613;-67
2022/03/06 13:22:17;;;;;;;15.13;7.65;;;;;;;17.39;17.67;100573.44;5396716;32;35008;-74
2022/03/06 13:25:22;;;;;;;14.37;8.27;;;;;;;15.66;19.38;100580.41;5378225;32;34460;-69
2022/03/06 13:28:25;;;;;;;16.00;8.33;;;;;;;17.75;16.38;100579.97;5353544;32;37061;-75
2022/03/06 13:31:27;;;;;;;14.50;8.40;;;;;;;14.14;20.44;100590.28;5384902;32;35363;-73
2022/03/06 13:34:40;;;;;;;14.45;7.65;;;;;;;14.33;20.25;100579.66;5393748;32;33171;-72
2022/03/06 13:37:42;;;;;;;13.90;8.18;;;;;;;16.78;17.00;100572.00;5372280;32;44986;-72
2022/03/06 13:40:47;;;;;;;15.30;8.90;;;;;;;14.13;20.48;100580.66;5371031;32;35683;-68
2022/03/06 13:43:50;;;;;;;12.60;7.57;;;;;;;15.30;18.54;100573.56;5391771;32;35348;-68
2022/03/06 13:46:53;;;;;;;16.73;8.67;;;;;;;18.87;15.26;100565.22;5366460;32;35124;-72
2022/03/06 13:50:02;;;;;;;12.82;7.47;;;;;;;17.64;16.54;100564.69;5387324;32;34058;-72
2022/03/06 13:53:07;;;;;;;12.90;8.37;;;;;;;20.53;13.57;100554.69;5383533;32;35123;-69
2022/03/06 13:56:09;;;;;;;12.90;8.27;;;;;;;20.44;13.55;100553.56;5387956;32;34227;-68
2022/03/06 13:59:22;;;;;;;12.43;8.05;;;;;;;19.16;14.98;100560.50;5384583;32;43719;-68
2022/03/06 14:02:26;;;;;;;12.70;7.77;;;;;;;21.13;13.43;100556.16;5392638;32;34658;-68
2022/03/06 14:05:31;;;;;;;13.83;8.00;;;;;;;21.31;13.22;100551.16;5383529;32;34701;-69
2022/03/06 14:08:42;;;;;;;13.93;7.90;;;;;;;18.40;14.93;100564.91;5365455;32;35292;-69
2022/03/06 14:11:44;;;;;;;15.93;8.77;;;;;;;12.21;21.32;100585.22;5380720;32;44855;-68
2022/03/06 14:14:48;;;;;;;13.23;7.77;;;;;;;11.26;22.60;100588.19;5365570;32;35371;-68